イカルイト の空港の天気 - METARとTAF

イカルイト空港 ( CYFB / YFB ) - カナダ ヌナブト準州イカルイト
飛行場実況気象(Metar)
観測時間05/28 06:00 EDT (05/28 10:00 UTC)
風向・風速南東 4m/s
視程10km以上
天気現象
少しの雲 雲底高度 460m
少しの雲 雲底高度 3050m
気温-3℃
湿度80%
気圧1019hPa
METARCYFB 281000Z 13008KT 30SM FEW015 FEW100 M03/M06 A3008 RMK SC1AC1 SC TR AC TR SLP190
過去の天気等 Google飛行場航空写真 Wunderground天気予報

過去48時間のMETAR

飛行場予報(TAF)
発表時間: 5/28 01:40 EDT (5/28 05:40 UTC)
予報対象時間: 28日2時 EDT ~ 29日2時 EDT
風向・風速南東 4m/s
視程10km以上
全天の4割程度の雲 雲底高度 910m
全天の8割程度の雲 雲底高度 2130m
28日11時 EDT から
風向・風速南南東 5m/s
視程10km以上
少しの雲 雲底高度 910m
全天の4割程度の雲 雲底高度 7320m
TAF CYFB 280540Z 2806/2906 14008KT P6SM SCT030 BKN070
FM281500 15010KT P6SM FEW030 SCT240 RMK NXT FCST BY 281200Z